Time;durP1;ratioP1;P1;durP2;ratioP2;P2;SDS_P1;SDS_P2;PMS_P1;PMS_P2;Temp;Humidity;BMP_temperature;BMP_pressure;BME280_temperature;BME280_humidity;BME280_pressure;Samples;Min_cycle;Max_cycle;Signal;HPM_P1;HPM_P2
2021/11/12 00:02:15;;;;;;;99.10;27.65;;;;;;;;;;6257908;23;20211;-95
2021/11/12 00:13:07;;;;;;;97.82;25.55;;;;;;;;;;6260389;23;20203;-95
2021/11/12 00:15:35;;;;;;;100.40;26.88;;;;;;;;;;6263275;23;20199;-96
2021/11/12 00:18:04;;;;;;;98.18;25.30;;;;;;;;;;6258685;23;20178;-96
2021/11/12 00:20:32;;;;;;;101.63;28.52;;;;;;;;;;6255348;23;20788;-96
2021/11/12 00:22:58;;;;;;;95.80;26.23;;;;;;;;;;6253869;23;20181;-95
2021/11/12 00:25:25;;;;;;;101.03;28.27;;;;;;;;;;6254530;23;20616;-95
2021/11/12 00:27:51;;;;;;;98.50;28.35;;;;;;;;;;6253966;23;20184;-95
2021/11/12 00:30:29;;;;;;;100.95;27.42;;;;;;;;;;6256942;23;21095;-95
2021/11/12 00:33:04;;;;;;;100.10;27.23;;;;;;;;;;6259925;23;20195;-96
2021/11/12 00:35:38;;;;;;;96.80;26.95;;;;;;;;;;6259547;23;20180;-95
2021/11/12 00:38:08;;;;;;;102.25;27.95;;;;;;;;;;6253435;23;20177;-94
2021/11/12 00:40:41;;;;;;;106.32;30.73;;;;;;;;;;6252176;23;20255;-94
2021/11/12 00:43:26;;;;;;;102.88;29.73;;;;;;;;;;6253653;23;20180;-94
2021/11/12 00:45:59;;;;;;;102.82;29.55;;;;;;;;;;6252032;23;20171;-94
2021/11/12 00:48:28;;;;;;;103.57;30.08;;;;;;;;;;6254862;23;20200;-95
2021/11/12 00:51:09;;;;;;;108.25;30.65;;;;;;;;;;6257070;23;20690;-96
2021/11/12 00:53:54;;;;;;;105.57;29.92;;;;;;;;;;6257624;23;20174;-95
2021/11/12 00:56:22;;;;;;;103.47;30.00;;;;;;;;;;6263404;22;20168;-95
2021/11/12 00:58:49;;;;;;;100.10;27.85;;;;;;;;;;6265461;22;20176;-95
2021/11/12 01:01:16;;;;;;;111.57;33.05;;;;;;;;;;6253077;23;20219;-93
2021/11/12 01:03:43;;;;;;;113.72;34.35;;;;;;;;;;6253222;23;20176;-94
2021/11/12 01:06:14;;;;;;;116.13;35.20;;;;;;;;;;6252226;23;20178;-95
2021/11/12 01:08:40;;;;;;;106.93;31.75;;;;;;;;;;6252749;23;20182;-94
2021/11/12 01:11:07;;;;;;;103.70;29.65;;;;;;;;;;6251655;23;20215;-95
2021/11/12 01:13:34;;;;;;;104.53;29.30;;;;;;;;;;6251708;23;20182;-93
2021/11/12 01:16:01;;;;;;;108.50;32.50;;;;;;;;;;6251539;23;20264;-93
2021/11/12 01:18:28;;;;;;;110.13;32.78;;;;;;;;;;6252525;23;20173;-95
2021/11/12 01:20:54;;;;;;;117.07;35.60;;;;;;;;;;6249452;23;20200;-95
2021/11/12 01:23:22;;;;;;;112.55;34.38;;;;;;;;;;6245932;23;20177;-95
2021/11/12 01:25:49;;;;;;;109.15;32.13;;;;;;;;;;6249961;23;20180;-94
2021/11/12 01:28:16;;;;;;;106.30;31.33;;;;;;;;;;6253896;23;20177;-95
2021/11/12 01:30:43;;;;;;;103.70;29.60;;;;;;;;;;6249511;23;20261;-94
2021/11/12 01:33:09;;;;;;;98.22;30.30;;;;;;;;;;6246649;23;20180;-94
2021/11/12 01:35:36;;;;;;;98.40;27.88;;;;;;;;;;6246581;23;20176;-94
2021/11/12 01:38:03;;;;;;;113.28;29.88;;;;;;;;;;6246867;23;20178;-93
2021/11/12 01:40:31;;;;;;;103.88;29.35;;;;;;;;;;6245940;23;20187;-95
2021/11/12 01:43:06;;;;;;;107.10;30.65;;;;;;;;;;6248222;23;20191;-95
2021/11/12 01:45:47;;;;;;;110.97;32.40;;;;;;;;;;6251524;23;20199;-93
2021/11/12 01:48:24;;;;;;;100.70;27.52;;;;;;;;;;6250401;23;20177;-93
2021/11/12 01:50:56;;;;;;;94.20;25.60;;;;;;;;;;6251059;23;20176;-94
2021/11/12 01:53:28;;;;;;;97.95;26.27;;;;;;;;;;6253204;23;20210;-93
2021/11/12 01:58:52;;;;;;;110.15;29.58;;;;;;;;;;6242311;23;20251;-94
2021/11/12 02:01:19;;;;;;;112.53;32.45;;;;;;;;;;6253447;23;20211;-93
2021/11/12 02:03:46;;;;;;;115.97;30.65;;;;;;;;;;6252251;23;20180;-94
2021/11/12 02:06:14;;;;;;;108.65;30.70;;;;;;;;;;6252663;23;20176;-93
2021/11/12 02:08:40;;;;;;;99.28;26.63;;;;;;;;;;6252534;23;20182;-93
2021/11/12 02:11:09;;;;;;;96.65;26.13;;;;;;;;;;6252683;23;20634;-93
2021/11/12 02:13:36;;;;;;;94.60;26.05;;;;;;;;;;6252915;23;20199;-93
2021/11/12 02:16:04;;;;;;;98.85;26.30;;;;;;;;;;6253663;23;20177;-94
2021/11/12 02:18:35;;;;;;;102.30;26.98;;;;;;;;;;6252922;23;20183;-93
2021/11/12 02:21:08;;;;;;;96.90;25.80;;;;;;;;;;6252645;23;20188;-94
2021/11/12 02:23:36;;;;;;;96.55;26.23;;;;;;;;;;6252882;23;20177;-94
2021/11/12 02:26:03;;;;;;;104.30;27.88;;;;;;;;;;6252907;23;20234;-94
2021/11/12 02:28:30;;;;;;;94.35;23.05;;;;;;;;;;6250369;23;20202;-93
2021/11/12 02:30:58;;;;;;;93.30;24.25;;;;;;;;;;6250717;23;20213;-94
2021/11/12 02:33:25;;;;;;;94.75;24.85;;;;;;;;;;6251970;23;20176;-94
2021/11/12 02:36:00;;;;;;;98.90;24.95;;;;;;;;;;6252465;23;20182;-95
2021/11/12 02:38:29;;;;;;;97.72;23.38;;;;;;;;;;6252226;23;20187;-95
2021/11/12 02:40:56;;;;;;;89.28;22.23;;;;;;;;;;6251912;23;20176;-95
2021/11/12 02:43:23;;;;;;;97.05;24.42;;;;;;;;;;6252522;23;20716;-95
2021/11/12 02:45:50;;;;;;;100.32;26.38;;;;;;;;;;6252097;23;20175;-95
2021/11/12 02:48:17;;;;;;;102.22;25.88;;;;;;;;;;6250373;23;20172;-95
2021/11/12 02:50:43;;;;;;;96.10;24.70;;;;;;;;;;6250558;23;20200;-94
2021/11/12 02:53:12;;;;;;;97.13;23.40;;;;;;;;;;6252928;23;20227;-95
2021/11/12 02:55:41;;;;;;;101.82;26.70;;;;;;;;;;6252972;23;20204;-94
2021/11/12 02:58:07;;;;;;;95.95;24.25;;;;;;;;;;6254905;23;20177;-95
2021/11/12 03:00:36;;;;;;;94.28;24.00;;;;;;;;;;6254276;23;20178;-94
2021/11/12 03:03:02;;;;;;;98.30;25.98;;;;;;;;;;6254405;23;20203;-94
2021/11/12 03:05:30;;;;;;;111.63;29.48;;;;;;;;;;6254915;23;20664;-95
2021/11/12 03:07:57;;;;;;;116.00;30.98;;;;;;;;;;6253928;23;20172;-94
2021/11/12 03:10:24;;;;;;;100.88;28.58;;;;;;;;;;6253631;23;20187;-94
2021/11/12 03:12:52;;;;;;;105.15;28.45;;;;;;;;;;6254216;23;20179;-94
2021/11/12 03:15:18;;;;;;;101.68;25.65;;;;;;;;;;6255197;23;20200;-95
2021/11/12 03:17:47;;;;;;;106.22;30.23;;;;;;;;;;6256259;23;20172;-96
2021/11/12 03:20:14;;;;;;;99.30;28.23;;;;;;;;;;6256754;23;20494;-95
2021/11/12 03:22:47;;;;;;;107.10;27.35;;;;;;;;;;6260793;23;20277;-94
2021/11/12 03:25:22;;;;;;;97.50;26.70;;;;;;;;;;6267512;23;20183;-96
2021/11/12 03:28:00;;;;;;;100.05;27.30;;;;;;;;;;6270264;22;20198;-96
2021/11/12 03:31:00;;;;;;;108.20;28.90;;;;;;;;;;6262671;22;20202;-96
2021/11/12 03:56:27;;;;;;;120.60;32.67;;;;;;;;;;6253565;23;20236;-96
2021/11/12 04:07:04;;;;;;;108.25;30.13;;;;;;;;;;6187877;23;20175;-95
2021/11/12 04:20:37;;;;;;;114.55;31.92;;;;;;;;;;6251091;23;20185;-94
2021/11/12 05:09:53;;;;;;;232.48;37.45;;;;;;;;;;6252575;23;20180;-95
2021/11/12 05:12:43;;;;;;;179.43;35.25;;;;;;;;;;6253372;23;20196;-95
2021/11/12 05:34:57;;;;;;;160.00;38.95;;;;;;;;;;6253706;23;21044;-96
2021/11/12 05:46:04;;;;;;;152.40;36.78;;;;;;;;;;6254284;23;20174;-95
2021/11/12 05:56:55;;;;;;;152.00;39.38;;;;;;;;;;6267621;22;20180;-95
2021/11/12 05:59:24;;;;;;;172.60;40.88;;;;;;;;;;6267499;22;20195;-95
2021/11/12 06:01:51;;;;;;;151.00;35.58;;;;;;;;;;6253696;23;20201;-94
2021/11/12 06:04:18;;;;;;;202.43;35.95;;;;;;;;;;6253476;23;20181;-94
2021/11/12 06:06:44;;;;;;;154.70;34.95;;;;;;;;;;6253243;23;20177;-93
2021/11/12 06:09:11;;;;;;;156.02;35.78;;;;;;;;;;6251713;23;20173;-93
2021/11/12 06:11:38;;;;;;;157.02;35.42;;;;;;;;;;6251594;23;20175;-93
2021/11/12 06:14:05;;;;;;;160.05;35.25;;;;;;;;;;6252535;23;20645;-94
2021/11/12 06:16:33;;;;;;;168.38;37.50;;;;;;;;;;6256251;23;20287;-92
2021/11/12 06:19:00;;;;;;;203.98;37.25;;;;;;;;;;6254206;23;20180;-92
2021/11/12 06:21:27;;;;;;;170.77;37.83;;;;;;;;;;6254834;23;20176;-94
2021/11/12 06:23:53;;;;;;;168.95;38.13;;;;;;;;;;6251626;23;20182;-94
2021/11/12 06:26:20;;;;;;;185.77;39.13;;;;;;;;;;6252526;23;20256;-94
2021/11/12 06:28:47;;;;;;;173.52;38.10;;;;;;;;;;6253594;23;20174;-94
2021/11/12 06:31:14;;;;;;;146.18;36.97;;;;;;;;;;6254804;23;20205;-95
2021/11/12 06:33:43;;;;;;;169.50;37.75;;;;;;;;;;6255530;23;20183;-93
2021/11/12 06:36:09;;;;;;;162.35;41.50;;;;;;;;;;6253488;23;20237;-94
2021/11/12 06:38:37;;;;;;;170.85;40.55;;;;;;;;;;6252031;23;20169;-94
2021/11/12 06:41:08;;;;;;;154.40;39.85;;;;;;;;;;6250838;23;20178;-93
2021/11/12 06:43:41;;;;;;;151.60;40.65;;;;;;;;;;6250422;23;20208;-92
2021/11/12 06:51:39;;;;;;;160.32;44.55;;;;;;;;;;6255490;23;20200;-94
2021/11/12 06:54:06;;;;;;;150.13;37.97;;;;;;;;;;6250469;23;20256;-93
2021/11/12 06:56:32;;;;;;;128.90;36.60;;;;;;;;;;6250753;23;20178;-92
2021/11/12 06:58:59;;;;;;;134.18;38.95;;;;;;;;;;6253224;23;20185;-93
2021/11/12 07:01:27;;;;;;;130.70;37.20;;;;;;;;;;6255729;23;20179;-94
2021/11/12 07:03:55;;;;;;;175.15;40.10;;;;;;;;;;6255054;23;20264;-94
2021/11/12 07:06:22;;;;;;;179.00;42.90;;;;;;;;;;6255719;23;20206;-93
2021/11/12 07:08:49;;;;;;;163.05;38.03;;;;;;;;;;6255339;23;20179;-92
2021/11/12 07:11:16;;;;;;;164.15;39.72;;;;;;;;;;6255136;23;20178;-94
2021/11/12 07:13:42;;;;;;;179.55;42.85;;;;;;;;;;6254253;23;20174;-93
2021/11/12 07:16:09;;;;;;;177.77;43.00;;;;;;;;;;6254111;23;20179;-93
2021/11/12 07:18:36;;;;;;;155.43;40.85;;;;;;;;;;6251826;23;20181;-92
2021/11/12 07:21:04;;;;;;;185.23;39.17;;;;;;;;;;6253221;23;20824;-93
2021/11/12 07:23:31;;;;;;;226.55;44.17;;;;;;;;;;6254406;23;20202;-92
2021/11/12 07:25:58;;;;;;;220.13;43.72;;;;;;;;;;6252074;23;20260;-94
2021/11/12 07:28:27;;;;;;;173.80;42.83;;;;;;;;;;6251162;23;20178;-93
2021/11/12 07:30:55;;;;;;;159.82;42.67;;;;;;;;;;6249117;23;20180;-92
2021/11/12 07:33:23;;;;;;;164.40;43.28;;;;;;;;;;6249515;23;20192;-93
2021/11/12 07:35:53;;;;;;;186.52;43.70;;;;;;;;;;6248808;23;20175;-92
2021/11/12 07:38:23;;;;;;;184.27;45.42;;;;;;;;;;6251480;23;20180;-93
2021/11/12 07:46:21;;;;;;;157.40;42.28;;;;;;;;;;6253852;23;20204;-92
2021/11/12 07:48:48;;;;;;;148.88;41.47;;;;;;;;;;6251274;23;20202;-93
2021/11/12 07:51:14;;;;;;;206.27;46.38;;;;;;;;;;6249565;23;20175;-91
2021/11/12 07:53:42;;;;;;;188.75;43.25;;;;;;;;;;6253061;23;20182;-93
2021/11/12 07:56:09;;;;;;;160.60;44.25;;;;;;;;;;6253247;23;20178;-93
2021/11/12 07:58:36;;;;;;;183.93;42.53;;;;;;;;;;6251806;23;20189;-92
2021/11/12 08:01:02;;;;;;;177.57;46.05;;;;;;;;;;6252031;23;20182;-93
2021/11/12 08:03:29;;;;;;;174.03;41.00;;;;;;;;;;6253254;23;21172;-92
2021/11/12 08:05:56;;;;;;;167.00;44.97;;;;;;;;;;6254040;23;20410;-92
2021/11/12 08:08:24;;;;;;;152.38;42.70;;;;;;;;;;6254440;23;20182;-93
2021/11/12 08:10:55;;;;;;;150.13;43.33;;;;;;;;;;6254470;23;20263;-92
2021/11/12 08:13:31;;;;;;;135.53;41.10;;;;;;;;;;6252907;23;20416;-92
2021/11/12 08:16:09;;;;;;;144.87;40.23;;;;;;;;;;6253359;23;20420;-90
2021/11/12 08:18:45;;;;;;;147.53;41.80;;;;;;;;;;6253337;23;20880;-91
2021/11/12 08:21:14;;;;;;;137.93;41.77;;;;;;;;;;6253831;23;21084;-91
2021/11/12 08:23:50;;;;;;;130.27;41.85;;;;;;;;;;6247379;23;20457;-92
2021/11/12 08:26:26;;;;;;;132.33;39.83;;;;;;;;;;6256003;23;20209;-91
2021/11/12 08:31:55;;;;;;;122.23;37.30;;;;;;;;;;6212241;23;20429;-91
2021/11/12 08:34:25;;;;;;;122.17;38.27;;;;;;;;;;6245930;23;20942;-90
2021/11/12 08:37:05;;;;;;;129.90;40.77;;;;;;;;;;6251400;23;20405;-90
2021/11/12 08:39:42;;;;;;;149.10;45.53;;;;;;;;;;6250859;23;20413;-92
2021/11/12 08:42:12;;;;;;;152.00;47.57;;;;;;;;;;6243073;23;20416;-91
2021/11/12 08:44:42;;;;;;;134.47;44.70;;;;;;;;;;6244644;23;20412;-92
2021/11/12 08:47:11;;;;;;;141.90;46.00;;;;;;;;;;6247929;23;20414;-92
2021/11/12 08:49:40;;;;;;;135.93;45.97;;;;;;;;;;6252585;23;20449;-91
2021/11/12 08:52:07;;;;;;;134.20;42.60;;;;;;;;;;6254322;23;20414;-92
2021/11/12 08:54:36;;;;;;;113.87;33.97;;;;;;;;;;6248962;23;20460;-91
2021/11/12 08:57:07;;;;;;;123.90;40.20;;;;;;;;;;6248158;23;21221;-90
2021/11/12 08:59:36;;;;;;;129.00;40.53;;;;;;;;;;6249761;23;20410;-90
2021/11/12 09:02:03;;;;;;;136.27;40.37;;;;;;;;;;6251911;23;20414;-91
2021/11/12 09:04:30;;;;;;;121.20;39.10;;;;;;;;;;6250917;23;20457;-91
2021/11/12 09:06:56;;;;;;;126.30;38.50;;;;;;;;;;6250626;23;20406;-91
2021/11/12 09:09:23;;;;;;;122.60;39.83;;;;;;;;;;6252025;23;20850;-91
2021/11/12 09:11:49;;;;;;;117.53;39.20;;;;;;;;;;6252446;23;20425;-93
2021/11/12 09:14:18;;;;;;;115.07;37.77;;;;;;;;;;6248967;23;20867;-91
2021/11/12 09:16:47;;;;;;;119.47;39.90;;;;;;;;;;6247245;23;20433;-91
2021/11/12 09:19:14;;;;;;;114.77;36.40;;;;;;;;;;6251251;23;20413;-91
2021/11/12 09:21:41;;;;;;;116.47;37.53;;;;;;;;;;6251595;23;20410;-91
2021/11/12 09:24:08;;;;;;;116.47;37.23;;;;;;;;;;6251271;23;20445;-91
2021/11/12 09:26:36;;;;;;;117.00;37.60;;;;;;;;;;6251816;23;20432;-92
2021/11/12 09:29:03;;;;;;;115.67;36.87;;;;;;;;;;6254331;23;20410;-93
2021/11/12 09:31:29;;;;;;;122.23;34.07;;;;;;;;;;6251783;23;20398;-91
2021/11/12 09:33:58;;;;;;;109.47;31.60;;;;;;;;;;6249486;23;20483;-93
2021/11/12 09:36:25;;;;;;;109.83;34.30;;;;;;;;;;6251439;23;20418;-92
2021/11/12 09:38:52;;;;;;;118.93;33.47;;;;;;;;;;6250459;23;20437;-92
2021/11/12 09:41:18;;;;;;;113.10;37.07;;;;;;;;;;6247860;23;20402;-91
2021/11/12 09:43:47;;;;;;;118.27;38.10;;;;;;;;;;6245191;23;20580;-92
2021/11/12 09:46:13;;;;;;;126.97;40.23;;;;;;;;;;6246271;23;20398;-92
2021/11/12 09:48:40;;;;;;;121.67;39.33;;;;;;;;;;6250180;23;20417;-92
2021/11/12 09:51:09;;;;;;;118.60;37.70;;;;;;;;;;6252232;23;20405;-92
2021/11/12 09:53:35;;;;;;;116.40;40.23;;;;;;;;;;6253257;23;20414;-93
2021/11/12 09:56:07;;;;;;;111.83;38.47;;;;;;;;;;6251574;23;20398;-92
2021/11/12 09:58:34;;;;;;;108.80;36.67;;;;;;;;;;6250687;23;20421;-93
2021/11/12 10:01:00;;;;;;;112.17;36.10;;;;;;;;;;6252077;23;20406;-92
2021/11/12 10:03:32;;;;;;;110.83;37.13;;;;;;;;;;6252338;23;20462;-92
2021/11/12 10:05:59;;;;;;;110.77;37.17;;;;;;;;;;6250112;23;20469;-93
2021/11/12 10:08:28;;;;;;;108.70;38.43;;;;;;;;;;6253413;23;20415;-93
2021/11/12 10:10:58;;;;;;;111.07;37.07;;;;;;;;;;6251716;23;20485;-93
2021/11/12 10:13:28;;;;;;;115.10;36.67;;;;;;;;;;6253538;23;20420;-92
2021/11/12 10:16:05;;;;;;;108.97;33.87;;;;;;;;;;6254045;23;20415;-95
2021/11/12 10:18:32;;;;;;;105.57;33.67;;;;;;;;;;6253216;23;20468;-96
2021/11/12 10:20:59;;;;;;;99.60;34.00;;;;;;;;;;6252477;23;20473;-93
2021/11/12 10:23:30;;;;;;;103.60;31.27;;;;;;;;;;6251375;23;20477;-94
2021/11/12 10:25:58;;;;;;;101.53;30.87;;;;;;;;;;6250417;23;20755;-94
2021/11/12 10:28:35;;;;;;;100.27;31.80;;;;;;;;;;6250225;23;20420;-93
2021/11/12 10:31:10;;;;;;;101.33;32.20;;;;;;;;;;6251226;23;20403;-91
2021/11/12 10:33:36;;;;;;;100.10;32.33;;;;;;;;;;6253043;23;20426;-92
2021/11/12 10:36:03;;;;;;;101.77;30.30;;;;;;;;;;6253466;23;20408;-93
2021/11/12 10:38:38;;;;;;;100.37;31.37;;;;;;;;;;6253993;23;20412;-94
2021/11/12 10:41:13;;;;;;;98.57;29.90;;;;;;;;;;6253955;23;20442;-93
2021/11/12 10:43:39;;;;;;;97.47;31.43;;;;;;;;;;6252696;23;20868;-92
2021/11/12 10:46:06;;;;;;;103.17;31.27;;;;;;;;;;6253084;23;20458;-91
2021/11/12 10:48:33;;;;;;;102.50;31.10;;;;;;;;;;6253712;23;20468;-93
2021/11/12 10:51:14;;;;;;;102.07;31.80;;;;;;;;;;6253922;23;20439;-94
2021/11/12 10:53:48;;;;;;;100.37;29.80;;;;;;;;;;6261031;22;20424;-96
2021/11/12 10:56:15;;;;;;;103.00;32.00;;;;;;;;;;6257990;23;20416;-93
2021/11/12 10:58:56;;;;;;;102.97;31.77;;;;;;;;;;6252774;23;20420;-94
2021/11/12 11:01:30;;;;;;;106.57;33.30;;;;;;;;;;6254148;23;20418;-93
2021/11/12 11:04:13;;;;;;;109.80;35.87;;;;;;;;;;6252581;23;20454;-93
2021/11/12 11:06:39;;;;;;;112.17;36.43;;;;;;;;;;6253112;23;20419;-93
2021/11/12 11:09:07;;;;;;;115.70;36.83;;;;;;;;;;6250377;23;20447;-93
2021/11/12 11:11:38;;;;;;;110.90;34.50;;;;;;;;;;6254131;23;20970;-94
2021/11/12 11:14:05;;;;;;;104.23;32.73;;;;;;;;;;6254838;23;20437;-95
2021/11/12 11:16:35;;;;;;;114.97;33.50;;;;;;;;;;6254456;23;20413;-93
2021/11/12 11:19:02;;;;;;;101.33;31.00;;;;;;;;;;6250523;23;20479;-92
2021/11/12 11:21:30;;;;;;;102.77;30.00;;;;;;;;;;6253142;23;20405;-93
2021/11/12 11:23:59;;;;;;;100.67;29.97;;;;;;;;;;6254727;23;20455;-92
2021/11/12 11:26:28;;;;;;;104.27;31.10;;;;;;;;;;6251520;23;20413;-94
2021/11/12 11:28:56;;;;;;;102.20;30.40;;;;;;;;;;6247318;23;20410;-94
2021/11/12 11:31:23;;;;;;;94.63;29.60;;;;;;;;;;6254722;23;20417;-94
2021/11/12 11:33:51;;;;;;;106.80;30.40;;;;;;;;;;6248911;23;20417;-96
2021/11/12 11:36:19;;;;;;;94.67;28.23;;;;;;;;;;6255832;23;20409;-94
2021/11/12 11:38:46;;;;;;;97.23;29.30;;;;;;;;;;6255875;23;20409;-94
2021/11/12 11:41:13;;;;;;;99.47;28.87;;;;;;;;;;6257097;23;20425;-93
2021/11/12 11:43:41;;;;;;;93.93;30.20;;;;;;;;;;6253951;23;20469;-94
2021/11/12 11:46:10;;;;;;;98.40;30.03;;;;;;;;;;6253943;23;20405;-92
2021/11/12 11:48:38;;;;;;;94.77;29.50;;;;;;;;;;6255656;23;20447;-94
2021/11/12 11:51:05;;;;;;;96.00;29.23;;;;;;;;;;6251381;23;20405;-94
2021/11/12 11:53:32;;;;;;;95.87;29.47;;;;;;;;;;6251380;23;20406;-95
2021/11/12 11:56:13;;;;;;;100.20;28.60;;;;;;;;;;6252987;23;20413;-92
2021/11/12 11:58:42;;;;;;;94.97;27.93;;;;;;;;;;6252265;23;20460;-93
2021/11/12 12:01:15;;;;;;;97.03;27.97;;;;;;;;;;6252380;23;20402;-94
2021/11/12 12:03:41;;;;;;;90.70;28.10;;;;;;;;;;6253141;23;20450;-93
2021/11/12 12:06:11;;;;;;;92.23;27.30;;;;;;;;;;6251790;23;21266;-93
2021/11/12 12:08:48;;;;;;;89.90;25.87;;;;;;;;;;6252347;23;20420;-94
2021/11/12 12:11:19;;;;;;;98.93;27.47;;;;;;;;;;6252432;23;20412;-95
2021/11/12 12:13:47;;;;;;;91.47;25.73;;;;;;;;;;6253132;23;20417;-94
2021/11/12 12:16:22;;;;;;;89.97;24.47;;;;;;;;;;6254015;23;20408;-94
2021/11/12 12:18:49;;;;;;;86.27;23.70;;;;;;;;;;6253854;23;20421;-91
2021/11/12 12:33:11;;;;;;;82.53;22.70;;;;;;;;;;6252822;23;20408;-91
2021/11/12 12:35:53;;;;;;;89.30;24.07;;;;;;;;;;6252479;23;20417;-93
2021/11/12 13:20:40;;;;;;;85.33;25.17;;;;;;;;;;6251009;23;20404;-90
2021/11/12 13:23:11;;;;;;;92.70;26.37;;;;;;;;;;6256007;23;20407;-93
2021/11/12 13:25:39;;;;;;;106.10;28.33;;;;;;;;;;6260689;23;20454;-92
2021/11/12 13:28:21;;;;;;;86.10;25.63;;;;;;;;;;6262000;23;20414;-92
2021/11/12 13:30:49;;;;;;;87.70;26.03;;;;;;;;;;6246207;23;20449;-93
2021/11/12 13:33:33;;;;;;;87.00;26.00;;;;;;;;;;6225603;23;20433;-94
2021/11/12 13:36:04;;;;;;;91.03;26.33;;;;;;;;;;6251154;23;20406;-92
2021/11/12 13:38:38;;;;;;;88.63;26.57;;;;;;;;;;6252047;23;20413;-94
2021/11/12 13:41:07;;;;;;;103.47;27.30;;;;;;;;;;6252970;23;20902;-92
2021/11/12 13:43:35;;;;;;;86.63;25.90;;;;;;;;;;6250835;23;20418;-92
2021/11/12 13:46:02;;;;;;;87.40;26.70;;;;;;;;;;6253160;23;20406;-92
2021/11/12 13:48:29;;;;;;;83.60;24.07;;;;;;;;;;6249430;23;20458;-92
2021/11/12 13:50:56;;;;;;;83.27;25.97;;;;;;;;;;6241736;23;20410;-92
2021/11/12 13:53:27;;;;;;;83.50;23.83;;;;;;;;;;6249122;23;20420;-92
2021/11/12 13:55:53;;;;;;;87.90;25.20;;;;;;;;;;6252916;23;20830;-92
2021/11/12 13:58:21;;;;;;;86.20;25.53;;;;;;;;;;6252391;23;20406;-91
2021/11/12 14:00:48;;;;;;;87.50;25.13;;;;;;;;;;6253506;23;20410;-92
2021/11/12 14:03:18;;;;;;;85.87;24.40;;;;;;;;;;6250894;23;20410;-92
2021/11/12 14:05:54;;;;;;;89.47;26.60;;;;;;;;;;6256963;23;20476;-93
2021/11/12 14:08:20;;;;;;;87.57;25.20;;;;;;;;;;6261356;23;20473;-93
2021/11/12 14:10:50;;;;;;;87.13;25.73;;;;;;;;;;6250425;23;20449;-93
2021/11/12 14:13:18;;;;;;;89.00;26.23;;;;;;;;;;6250116;23;20440;-92
2021/11/12 14:15:55;;;;;;;86.23;24.97;;;;;;;;;;6249361;23;20405;-92
2021/11/12 14:21:13;;;;;;;86.13;24.90;;;;;;;;;;6239310;23;20440;-91
2021/11/12 14:23:51;;;;;;;82.87;24.10;;;;;;;;;;6243796;23;20409;-92
2021/11/12 14:26:27;;;;;;;84.87;24.40;;;;;;;;;;6249059;23;20410;-93
2021/11/12 14:28:57;;;;;;;83.07;24.90;;;;;;;;;;6249466;23;20432;-92
2021/11/12 14:31:36;;;;;;;83.40;23.70;;;;;;;;;;6249276;23;21028;-91
2021/11/12 14:34:10;;;;;;;91.07;25.47;;;;;;;;;;6252183;23;20445;-92
2021/11/12 14:36:48;;;;;;;82.73;24.60;;;;;;;;;;6249905;23;20501;-91
2021/11/12 14:39:36;;;;;;;86.63;22.07;;;;;;;;;;6252411;23;20441;-91
2021/11/12 14:44:59;;;;;;;85.40;23.53;;;;;;;;;;6251446;23;21134;-92
2021/11/12 14:47:34;;;;;;;84.33;23.73;;;;;;;;;;6252830;23;20445;-92
2021/11/12 14:50:09;;;;;;;84.77;24.03;;;;;;;;;;6253936;23;20557;-93
2021/11/12 14:52:35;;;;;;;85.90;24.03;;;;;;;;;;6255522;23;20832;-94
2021/11/12 14:55:07;;;;;;;83.50;22.70;;;;;;;;;;6251762;23;20410;-92
2021/11/12 14:57:37;;;;;;;87.47;24.33;;;;;;;;;;6252837;23;20441;-92
2021/11/12 15:00:10;;;;;;;87.47;27.37;;;;;;;;;;6253115;23;20443;-91
2021/11/12 15:02:37;;;;;;;100.57;31.70;;;;;;;;;;6253828;23;20451;-93
2021/11/12 15:05:04;;;;;;;101.60;31.07;;;;;;;;;;6253735;23;20465;-91
2021/11/12 15:07:36;;;;;;;94.53;28.73;;;;;;;;;;6246206;23;20413;-90
2021/11/12 15:10:03;;;;;;;99.17;32.07;;;;;;;;;;6249351;23;20416;-92
2021/11/12 15:12:30;;;;;;;100.43;32.83;;;;;;;;;;6252395;23;20982;-95
2021/11/12 15:15:00;;;;;;;99.47;32.60;;;;;;;;;;6258961;23;20528;-96
2021/11/12 15:17:29;;;;;;;113.70;34.40;;;;;;;;;;6273086;23;20399;-96
2021/11/12 15:20:02;;;;;;;109.27;33.60;;;;;;;;;;6218136;22;20469;-96
2021/11/12 15:22:41;;;;;;;104.10;34.70;;;;;;;;;;6258859;22;21037;-92
2021/11/12 15:25:18;;;;;;;103.47;36.83;;;;;;;;;;6250075;23;20458;-94
2021/11/12 15:27:54;;;;;;;114.03;39.37;;;;;;;;;;6251861;23;21386;-95
2021/11/12 15:30:24;;;;;;;116.37;39.93;;;;;;;;;;6253025;23;20411;-94
2021/11/12 15:32:53;;;;;;;115.83;39.10;;;;;;;;;;6254517;23;20415;-93
2021/11/12 15:35:22;;;;;;;129.23;39.00;;;;;;;;;;6254526;23;20457;-94
2021/11/12 15:37:54;;;;;;;125.30;44.53;;;;;;;;;;6253298;23;20406;-95
2021/11/12 15:40:26;;;;;;;125.03;47.30;;;;;;;;;;6259158;23;20421;-96
2021/11/12 15:45:59;;;;;;;116.47;41.40;;;;;;;;;;6230632;23;20445;-94
2021/11/12 15:48:30;;;;;;;122.93;43.20;;;;;;;;;;6254569;23;20417;-94
2021/11/12 15:51:11;;;;;;;116.60;39.20;;;;;;;;;;6255462;23;20418;-94
2021/11/12 15:53:43;;;;;;;117.97;41.47;;;;;;;;;;6255924;23;20401;-95
2021/11/12 15:58:59;;;;;;;130.57;46.07;;;;;;;;;;6260990;22;20405;-93
2021/11/12 16:01:54;;;;;;;126.60;45.87;;;;;;;;;;6264383;23;20409;-94
2021/11/12 16:04:42;;;;;;;126.70;43.30;;;;;;;;;;6251109;23;20406;-94
2021/11/12 16:10:04;;;;;;;120.63;39.97;;;;;;;;;;6250176;23;20397;-91
2021/11/12 16:12:46;;;;;;;127.37;42.67;;;;;;;;;;6253060;23;20406;-91
2021/11/12 16:15:25;;;;;;;107.50;37.17;;;;;;;;;;6253120;23;20425;-92
2021/11/12 16:17:58;;;;;;;102.80;33.07;;;;;;;;;;6252236;23;20425;-92
2021/11/12 16:20:40;;;;;;;112.80;34.30;;;;;;;;;;6252135;23;20965;-93
2021/11/12 16:25:58;;;;;;;108.17;35.93;;;;;;;;;;6229098;23;20476;-91
2021/11/12 16:28:25;;;;;;;113.63;37.73;;;;;;;;;;6255324;23;21006;-92
2021/11/12 16:30:56;;;;;;;116.57;38.47;;;;;;;;;;6252399;23;20437;-92
2021/11/12 16:33:26;;;;;;;113.07;38.70;;;;;;;;;;6253360;23;20418;-94
2021/11/12 16:35:56;;;;;;;121.03;39.07;;;;;;;;;;6251965;23;20414;-96
2021/11/12 16:38:25;;;;;;;117.83;43.03;;;;;;;;;;6252598;23;20410;-94
2021/11/12 16:40:56;;;;;;;125.07;44.30;;;;;;;;;;6226425;23;20476;-92
2021/11/12 16:43:34;;;;;;;137.60;46.80;;;;;;;;;;6251220;23;20428;-91
2021/11/12 16:46:21;;;;;;;129.43;46.77;;;;;;;;;;6249658;23;20505;-92
2021/11/12 16:48:57;;;;;;;148.73;52.07;;;;;;;;;;6248948;23;20405;-91
2021/11/12 16:54:15;;;;;;;138.07;49.30;;;;;;;;;;6250042;23;20416;-93
2021/11/12 16:56:54;;;;;;;120.60;43.00;;;;;;;;;;6249457;23;20432;-92
2021/11/12 16:59:24;;;;;;;135.37;47.43;;;;;;;;;;6252920;23;20413;-92
2021/11/12 17:02:16;;;;;;;134.00;48.10;;;;;;;;;;6253402;23;20440;-92
2021/11/12 17:04:56;;;;;;;124.67;46.53;;;;;;;;;;6250957;23;20481;-93
2021/11/12 17:07:34;;;;;;;128.60;48.33;;;;;;;;;;6252045;23;20414;-92
2021/11/12 17:10:18;;;;;;;134.30;49.27;;;;;;;;;;6252255;23;20413;-92
2021/11/12 17:13:05;;;;;;;129.30;48.70;;;;;;;;;;6251254;23;20417;-93
2021/11/12 17:18:29;;;;;;;121.50;40.33;;;;;;;;;;6244802;23;20404;-93
2021/11/12 17:46:03;;;;;;;120.27;41.20;;;;;;;;;;6252274;23;20461;-92
2021/11/12 17:48:33;;;;;;;124.57;42.10;;;;;;;;;;6251705;23;20434;-92
2021/11/12 17:51:37;;;;;;;127.03;43.50;;;;;;;;;;6251008;23;20946;-93
2021/11/12 18:02:22;;;;;;;112.83;38.37;;;;;;;;;;6253092;23;20456;-92
2021/11/12 18:07:49;;;;;;;105.83;35.23;;;;;;;;;;6231291;23;20417;-93
2021/11/12 21:44:07;;;;;;;107.75;33.05;;;;;;;;;;6188727;23;20201;-92
2021/11/12 21:46:33;;;;;;;113.53;34.70;;;;;;;;;;6218590;23;20212;-93
2021/11/12 21:49:01;;;;;;;111.25;34.35;;;;;;;;;;6248440;23;20181;-92
2021/11/12 21:51:31;;;;;;;113.43;35.33;;;;;;;;;;6251452;23;20650;-93
2021/11/12 21:53:59;;;;;;;114.25;34.40;;;;;;;;;;6251310;23;20177;-92
2021/11/12 21:56:26;;;;;;;109.50;33.22;;;;;;;;;;6251223;22;20176;-92
2021/11/12 21:58:53;;;;;;;109.47;34.40;;;;;;;;;;6250468;23;20181;-94
2021/11/12 22:01:21;;;;;;;109.07;34.47;;;;;;;;;;6251331;23;20172;-93
2021/11/12 22:03:48;;;;;;;107.53;31.67;;;;;;;;;;6251521;23;20181;-93
2021/11/12 22:06:14;;;;;;;115.53;34.83;;;;;;;;;;6252646;23;20212;-93
2021/11/12 22:08:42;;;;;;;116.85;39.45;;;;;;;;;;6253216;23;20176;-93
2021/11/12 22:11:10;;;;;;;114.32;37.65;;;;;;;;;;6253002;23;20177;-93
2021/11/12 22:13:38;;;;;;;117.13;39.40;;;;;;;;;;6252749;23;20213;-93
2021/11/12 22:16:05;;;;;;;124.15;38.28;;;;;;;;;;6252916;23;20186;-93
2021/11/12 22:18:31;;;;;;;106.07;34.70;;;;;;;;;;6251781;23;20908;-92
2021/11/12 22:20:58;;;;;;;117.78;38.85;;;;;;;;;;6245935;23;20209;-93
2021/11/12 22:23:25;;;;;;;115.22;36.15;;;;;;;;;;6244343;23;20208;-94
2021/11/12 22:25:53;;;;;;;123.32;39.95;;;;;;;;;;6244373;23;20202;-93